Time;durP1;ratioP1;P1;durP2;ratioP2;P2;SDS_P1;SDS_P2;PMS_P1;PMS_P2;Temp;Humidity;BMP_temperature;BMP_pressure;BME280_temperature;BME280_humidity;BME280_pressure;Samples;Min_cycle;Max_cycle;Signal;HPM_P1;HPM_P2
2023/12/16 00:02:04;;;;;;;2.25;0.30;;;17.70;53.60;;;;;;5050265;28;20368;-68
2023/12/16 00:04:30;;;;;;;1.83;0.50;;;17.60;53.60;;;;;;5050207;28;20049;-69
2023/12/16 00:06:56;;;;;;;2.30;0.38;;;17.60;53.60;;;;;;5050081;28;20055;-68
2023/12/16 00:09:21;;;;;;;2.20;0.43;;;17.60;53.60;;;;;;5050456;28;20033;-68
2023/12/16 00:11:50;;;;;;;2.15;0.80;;;17.60;53.60;;;;;;5050365;28;20465;-68
2023/12/16 00:14:16;;;;;;;3.10;0.40;;;17.60;53.70;;;;;;5050116;28;20056;-69
2023/12/16 00:16:44;;;;;;;1.42;0.60;;;17.60;53.60;;;;;;5050165;28;20037;-68
2023/12/16 00:19:10;;;;;;;0.93;0.40;;;17.60;53.60;;;;;;5050317;28;20037;-69
2023/12/16 00:21:37;;;;;;;1.33;0.30;;;17.60;53.60;;;;;;5050254;28;20548;-67
2023/12/16 00:24:03;;;;;;;1.90;0.55;;;17.60;53.60;;;;;;5051519;28;20109;-68
2023/12/16 00:26:32;;;;;;;2.28;0.50;;;17.60;53.60;;;;;;5066778;28;20044;-67
2023/12/16 00:28:58;;;;;;;2.10;0.50;;;17.50;53.60;;;;;;5066935;28;20029;-67
2023/12/16 00:31:28;;;;;;;1.38;0.40;;;17.50;53.60;;;;;;5066929;28;20047;-69
2023/12/16 00:33:53;;;;;;;1.23;0.40;;;17.50;53.60;;;;;;5049732;28;20537;-68
2023/12/16 00:36:19;;;;;;;1.48;0.57;;;17.50;53.60;;;;;;5049961;28;20128;-67
2023/12/16 00:38:44;;;;;;;1.20;0.35;;;17.50;53.60;;;;;;5050094;28;20060;-67
2023/12/16 00:41:10;;;;;;;2.10;0.52;;;17.50;53.60;;;;;;5051365;28;20041;-67
2023/12/16 00:43:36;;;;;;;2.17;0.60;;;17.50;53.60;;;;;;5053118;28;20033;-68
2023/12/16 00:46:01;;;;;;;1.85;0.50;;;17.50;53.60;;;;;;5054774;28;20060;-68
2023/12/16 00:48:27;;;;;;;1.60;0.50;;;17.50;53.60;;;;;;5053647;28;20048;-68
2023/12/16 00:50:53;;;;;;;1.70;0.25;;;17.50;54.40;;;;;;5053688;28;20099;-67
2023/12/16 00:53:18;;;;;;;1.23;0.30;;;17.50;53.70;;;;;;5055027;28;20431;-68
2023/12/16 00:55:44;;;;;;;1.70;0.55;;;17.50;53.70;;;;;;5054614;28;20091;-68
2023/12/16 00:58:10;;;;;;;2.70;0.40;;;17.40;53.70;;;;;;5053600;28;20037;-67
2023/12/16 01:00:35;;;;;;;0.80;0.40;;;17.40;53.70;;;;;;5053497;28;20037;-68
2023/12/16 01:03:01;;;;;;;0.70;0.30;;;17.40;53.70;;;;;;5069867;28;20473;-68
2023/12/16 01:05:27;;;;;;;1.90;0.45;;;17.40;53.70;;;;;;5054426;28;20048;-67
2023/12/16 01:07:52;;;;;;;1.50;0.40;;;17.40;53.70;;;;;;5054675;28;20044;-68
2023/12/16 01:10:18;;;;;;;1.35;0.38;;;17.40;53.80;;;;;;5054363;28;20037;-68
2023/12/16 01:12:45;;;;;;;1.77;0.30;;;17.40;53.90;;;;;;5053049;28;20071;-68
2023/12/16 01:15:10;;;;;;;2.08;0.40;;;17.30;53.90;;;;;;5054131;28;20128;-68
2023/12/16 01:17:36;;;;;;;2.10;0.40;;;17.30;54.00;;;;;;5052985;28;20444;-68
2023/12/16 01:20:08;;;;;;;1.17;0.30;;;17.30;54.10;;;;;;5053101;28;20037;-68
2023/12/16 01:22:37;;;;;;;2.13;0.50;;;17.30;54.10;;;;;;5054098;28;20080;-68
2023/12/16 01:25:03;;;;;;;1.38;0.40;;;17.20;54.00;;;;;;5052752;28;20077;-68
2023/12/16 01:27:28;;;;;;;0.93;0.30;;;17.20;54.10;;;;;;5052787;28;20047;-68
2023/12/16 01:29:54;;;;;;;2.95;0.50;;;17.20;54.20;;;;;;5052975;28;20041;-68
2023/12/16 01:32:20;;;;;;;2.30;0.30;;;17.20;54.20;;;;;;5052682;28;20045;-69
2023/12/16 01:34:45;;;;;;;1.15;0.20;;;17.20;54.20;;;;;;5068931;28;20049;-68
2023/12/16 01:37:11;;;;;;;1.48;0.40;;;17.10;54.30;;;;;;5052436;28;20057;-67
2023/12/16 01:39:37;;;;;;;0.90;0.30;;;17.20;54.30;;;;;;5069411;28;20045;-68
2023/12/16 01:42:05;;;;;;;1.55;0.40;;;17.20;54.40;;;;;;5052723;28;20455;-68
2023/12/16 01:44:31;;;;;;;0.80;0.30;;;17.10;54.40;;;;;;5053675;28;20052;-68
2023/12/16 01:46:57;;;;;;;1.83;0.35;;;17.10;54.40;;;;;;5052622;28;20037;-68
2023/12/16 01:49:25;;;;;;;1.63;0.45;;;17.00;54.50;;;;;;5052703;28;20045;-68
2023/12/16 01:51:52;;;;;;;1.00;0.30;;;17.00;54.50;;;;;;5053530;28;20497;-68
2023/12/16 01:54:18;;;;;;;0.80;0.30;;;17.00;54.50;;;;;;5052275;28;20064;-68
2023/12/16 01:56:45;;;;;;;1.20;0.30;;;17.00;54.50;;;;;;5069574;28;20045;-68
2023/12/16 01:59:11;;;;;;;1.10;0.28;;;17.00;54.60;;;;;;5053602;28;20060;-68
2023/12/16 02:01:40;;;;;;;1.27;0.30;;;17.00;54.70;;;;;;5069096;28;20476;-67
2023/12/16 02:04:06;;;;;;;0.90;0.30;;;16.90;54.70;;;;;;5053327;28;20049;-67
2023/12/16 02:06:32;;;;;;;1.75;0.20;;;16.90;54.60;;;;;;5053132;28;20124;-68
2023/12/16 02:09:00;;;;;;;0.90;0.20;;;16.90;54.70;;;;;;5053324;28;20123;-68
2023/12/16 02:11:25;;;;;;;1.35;0.30;;;16.90;54.80;;;;;;5051995;28;20114;-67
2023/12/16 02:13:51;;;;;;;1.05;0.28;;;16.90;54.80;;;;;;5052204;28;20037;-69
2023/12/16 02:16:16;;;;;;;0.98;0.20;;;16.90;54.70;;;;;;5053102;28;20480;-68
2023/12/16 02:18:42;;;;;;;1.10;0.28;;;16.90;54.80;;;;;;5052973;28;20387;-68
2023/12/16 02:21:08;;;;;;;1.40;0.30;;;16.90;54.80;;;;;;5051806;28;20041;-68
2023/12/16 02:23:33;;;;;;;1.77;0.40;;;16.80;54.80;;;;;;5051358;28;20094;-67
2023/12/16 02:26:00;;;;;;;1.23;0.60;;;16.80;54.80;;;;;;5068266;28;20045;-68
2023/12/16 02:28:30;;;;;;;1.58;0.40;;;16.80;54.80;;;;;;5051555;28;20122;-68
2023/12/16 02:30:56;;;;;;;1.42;0.25;;;16.80;54.90;;;;;;5051794;28;20076;-67
2023/12/16 02:33:21;;;;;;;1.35;0.30;;;16.80;54.90;;;;;;5068111;28;20525;-67
2023/12/16 02:35:47;;;;;;;1.67;0.30;;;16.80;54.90;;;;;;5052547;28;20090;-68
2023/12/16 02:38:13;;;;;;;1.27;0.20;;;16.80;54.90;;;;;;5051916;28;20049;-68
2023/12/16 02:40:42;;;;;;;1.10;0.20;;;16.80;55.00;;;;;;5051542;28;20120;-67
2023/12/16 02:43:09;;;;;;;1.38;0.30;;;16.70;55.00;;;;;;5067649;28;20063;-68
2023/12/16 02:45:35;;;;;;;2.10;0.65;;;16.70;54.90;;;;;;5051735;28;20091;-68
2023/12/16 02:48:00;;;;;;;0.93;0.30;;;16.70;54.90;;;;;;5052493;28;20076;-67
2023/12/16 02:50:26;;;;;;;0.73;0.30;;;16.70;54.90;;;;;;5067864;28;20044;-67
2023/12/16 02:52:52;;;;;;;1.92;0.47;;;16.70;55.00;;;;;;5052369;28;20033;-68
2023/12/16 02:55:18;;;;;;;1.42;0.50;;;16.70;54.90;;;;;;5051013;28;20495;-67
2023/12/16 02:57:44;;;;;;;0.70;0.20;;;16.60;54.90;;;;;;5052450;28;20041;-67
2023/12/16 03:00:10;;;;;;;1.17;0.30;;;16.70;55.00;;;;;;5051122;28;20499;-68
2023/12/16 03:02:36;;;;;;;1.17;0.28;;;16.60;55.00;;;;;;5051370;28;20051;-68
2023/12/16 03:05:02;;;;;;;2.03;0.30;;;16.70;55.00;;;;;;5050598;28;20056;-67
2023/12/16 03:07:27;;;;;;;1.30;0.30;;;16.60;54.90;;;;;;5034610;28;20132;-68
2023/12/16 03:09:53;;;;;;;1.35;0.30;;;16.60;55.00;;;;;;5052289;28;20198;-67
2023/12/16 03:12:19;;;;;;;1.98;0.20;;;16.60;55.00;;;;;;5050946;28;20543;-68
2023/12/16 03:14:44;;;;;;;1.45;0.40;;;16.60;54.90;;;;;;5050735;28;20048;-68
2023/12/16 03:17:15;;;;;;;1.00;0.35;;;16.60;55.00;;;;;;5051059;28;20388;-68
2023/12/16 03:19:40;;;;;;;2.25;0.50;;;16.60;55.00;;;;;;5051943;28;20134;-68
2023/12/16 03:22:06;;;;;;;1.13;0.25;;;16.60;54.90;;;;;;5051962;28;20068;-69
2023/12/16 03:24:32;;;;;;;0.93;0.25;;;16.60;55.00;;;;;;5052138;28;20037;-68
2023/12/16 03:26:58;;;;;;;1.40;0.40;;;16.60;55.00;;;;;;5050979;28;20129;-67
2023/12/16 03:29:23;;;;;;;2.00;0.95;;;16.50;55.00;;;;;;5050646;28;20140;-67
2023/12/16 03:31:49;;;;;;;0.98;0.40;;;16.50;54.90;;;;;;5051879;28;20037;-67
2023/12/16 03:34:15;;;;;;;1.55;0.40;;;16.50;55.00;;;;;;5050236;28;20049;-67
2023/12/16 03:36:40;;;;;;;1.00;0.20;;;16.50;55.00;;;;;;5051751;28;20083;-68
2023/12/16 03:39:07;;;;;;;1.23;0.40;;;16.50;55.00;;;;;;5051714;28;20438;-68
2023/12/16 03:41:34;;;;;;;2.70;0.50;;;16.50;55.00;;;;;;5050805;28;20049;-68
2023/12/16 03:44:00;;;;;;;1.00;0.20;;;16.50;55.00;;;;;;5050599;28;20075;-67
2023/12/16 03:46:26;;;;;;;1.10;0.40;;;16.50;55.00;;;;;;5067243;28;20055;-68
2023/12/16 03:48:52;;;;;;;0.95;0.22;;;16.50;55.10;;;;;;5050628;28;20486;-67
2023/12/16 03:51:22;;;;;;;2.33;0.38;;;16.50;55.10;;;;;;5067213;28;20044;-68
2023/12/16 03:53:47;;;;;;;1.33;0.35;;;16.50;55.10;;;;;;5050596;28;20055;-68
2023/12/16 03:56:13;;;;;;;1.17;0.22;;;16.50;55.00;;;;;;5066964;28;20040;-68
2023/12/16 03:58:38;;;;;;;1.50;0.30;;;16.50;55.10;;;;;;5067066;28;20445;-68
2023/12/16 04:01:05;;;;;;;0.90;0.20;;;16.40;55.00;;;;;;5051593;28;20058;-68
2023/12/16 04:03:30;;;;;;;2.70;0.55;;;16.40;55.00;;;;;;5050611;28;20036;-67
2023/12/16 04:05:56;;;;;;;1.45;0.32;;;16.40;55.00;;;;;;5051482;28;20391;-67
2023/12/16 04:08:22;;;;;;;1.55;0.50;;;16.40;55.00;;;;;;5034000;28;20041;-68
2023/12/16 04:10:48;;;;;;;1.48;0.30;;;16.40;55.10;;;;;;5050377;28;20545;-68
2023/12/16 04:13:15;;;;;;;1.55;0.30;;;16.40;55.10;;;;;;5050265;28;20090;-67
2023/12/16 04:15:40;;;;;;;1.05;0.30;;;16.40;55.10;;;;;;5049972;28;20041;-68
2023/12/16 04:18:06;;;;;;;0.95;0.20;;;16.40;55.10;;;;;;5069747;28;20442;-68
2023/12/16 04:20:32;;;;;;;0.80;0.30;;;16.40;55.10;;;;;;5055296;28;20029;-67
2023/12/16 04:22:58;;;;;;;1.05;0.40;;;16.40;55.10;;;;;;5070541;28;20067;-68
2023/12/16 04:25:23;;;;;;;1.20;0.35;;;16.40;55.10;;;;;;5054071;28;20075;-67
2023/12/16 04:27:49;;;;;;;1.13;0.40;;;16.30;55.00;;;;;;5055179;28;20032;-68
2023/12/16 04:30:15;;;;;;;1.65;0.45;;;16.30;55.00;;;;;;5053946;28;20095;-67
2023/12/16 04:32:40;;;;;;;1.42;0.40;;;16.30;55.00;;;;;;5055140;28;20431;-67
2023/12/16 04:35:06;;;;;;;0.85;0.25;;;16.30;55.10;;;;;;5070154;28;20057;-68
2023/12/16 04:37:32;;;;;;;1.33;0.30;;;16.30;55.00;;;;;;5053895;28;20110;-67
2023/12/16 04:39:57;;;;;;;1.48;0.30;;;16.30;55.00;;;;;;5070288;28;20483;-67
2023/12/16 04:42:23;;;;;;;0.90;0.25;;;16.30;55.10;;;;;;5053611;28;20056;-68
2023/12/16 04:44:49;;;;;;;1.25;0.40;;;16.30;55.00;;;;;;5053833;28;20075;-67
2023/12/16 04:47:14;;;;;;;2.00;0.57;;;16.30;55.10;;;;;;5053690;28;20547;-68
2023/12/16 04:49:46;;;;;;;1.45;0.20;;;16.30;55.10;;;;;;5054811;28;20045;-68
2023/12/16 04:52:11;;;;;;;1.25;0.20;;;16.30;55.10;;;;;;5053535;28;20483;-68
2023/12/16 04:54:37;;;;;;;1.25;0.30;;;16.30;55.80;;;;;;5070010;28;20056;-67
2023/12/16 04:57:03;;;;;;;2.30;0.40;;;16.30;55.10;;;;;;5053408;28;20068;-67
2023/12/16 04:59:28;;;;;;;1.77;0.30;;;16.20;55.00;;;;;;5054546;28;20036;-68
2023/12/16 05:01:54;;;;;;;1.15;0.40;;;16.20;55.00;;;;;;5053429;28;20395;-67
2023/12/16 05:04:20;;;;;;;1.38;0.30;;;16.20;55.00;;;;;;5070157;28;20099;-68
2023/12/16 05:06:45;;;;;;;1.27;0.60;;;16.20;55.00;;;;;;5053134;28;20499;-67
2023/12/16 05:09:14;;;;;;;0.85;0.20;;;16.20;55.00;;;;;;5053306;28;20124;-67
2023/12/16 05:11:42;;;;;;;1.30;0.28;;;16.20;55.10;;;;;;5053409;28;20384;-68
2023/12/16 05:14:08;;;;;;;0.90;0.30;;;16.20;55.10;;;;;;5053313;28;20463;-68
2023/12/16 05:16:34;;;;;;;0.93;0.20;;;16.20;55.00;;;;;;5054203;28;20072;-69
2023/12/16 05:19:00;;;;;;;2.03;0.35;;;16.20;55.00;;;;;;5053008;28;20124;-68
2023/12/16 05:21:25;;;;;;;1.38;0.30;;;16.20;55.00;;;;;;5054279;28;20037;-67
2023/12/16 05:23:51;;;;;;;1.40;0.40;;;16.20;55.00;;;;;;5069512;28;20044;-67
2023/12/16 05:26:21;;;;;;;1.70;0.43;;;16.20;55.10;;;;;;5053103;28;20048;-68
2023/12/16 05:28:47;;;;;;;2.25;0.47;;;16.10;55.00;;;;;;5052622;28;20396;-68
2023/12/16 05:31:12;;;;;;;1.27;0.50;;;16.10;55.10;;;;;;5069559;28;20052;-68
2023/12/16 05:33:38;;;;;;;0.70;0.20;;;16.10;55.10;;;;;;5069074;28;20041;-67
2023/12/16 05:36:04;;;;;;;2.08;0.30;;;16.10;55.10;;;;;;5052789;28;20057;-68
2023/12/16 05:38:30;;;;;;;0.63;0.20;;;16.10;55.10;;;;;;5053683;28;20072;-67
2023/12/16 05:40:56;;;;;;;2.47;0.40;;;16.10;55.10;;;;;;5053862;28;20068;-67
2023/12/16 05:43:21;;;;;;;1.30;0.30;;;16.10;55.10;;;;;;5052514;28;20471;-68
2023/12/16 05:45:52;;;;;;;0.93;0.20;;;16.10;55.10;;;;;;5052412;28;20334;-67
2023/12/16 05:48:21;;;;;;;2.30;0.20;;;16.10;55.10;;;;;;5052309;28;20064;-67
2023/12/16 05:50:46;;;;;;;1.33;0.20;;;16.10;55.10;;;;;;5052385;28;20511;-67
2023/12/16 05:53:12;;;;;;;2.17;0.73;;;16.10;55.10;;;;;;5052613;28;20044;-68
2023/12/16 05:55:39;;;;;;;1.45;0.45;;;16.10;55.10;;;;;;5053365;28;20056;-68
2023/12/16 05:58:04;;;;;;;1.42;0.30;;;16.10;55.10;;;;;;5053855;28;20037;-68
2023/12/16 06:00:30;;;;;;;1.40;0.45;;;16.10;55.10;;;;;;5069040;28;20043;-68
2023/12/16 06:02:55;;;;;;;1.50;0.30;;;16.00;55.10;;;;;;5053601;28;20042;-68
2023/12/16 06:05:24;;;;;;;1.17;0.40;;;16.00;55.00;;;;;;5068797;28;20091;-68
2023/12/16 06:07:49;;;;;;;0.90;0.28;;;16.00;55.10;;;;;;5068953;28;20396;-68
2023/12/16 06:10:15;;;;;;;0.50;0.20;;;16.00;55.00;;;;;;5068593;28;20049;-67
2023/12/16 06:12:41;;;;;;;1.75;0.38;;;16.00;55.10;;;;;;5051958;28;20043;-67
2023/12/16 06:15:07;;;;;;;1.05;0.28;;;16.00;55.10;;;;;;5051773;28;20126;-68
2023/12/16 06:17:32;;;;;;;1.70;0.30;;;16.00;55.10;;;;;;5053256;28;20033;-67
2023/12/16 06:19:58;;;;;;;2.35;0.30;;;16.00;55.10;;;;;;5051942;28;20052;-68
2023/12/16 06:22:24;;;;;;;0.85;0.30;;;16.00;55.40;;;;;;5052043;28;20419;-67
2023/12/16 06:24:50;;;;;;;1.25;0.50;;;16.00;55.10;;;;;;5068174;28;20507;-67
2023/12/16 06:27:15;;;;;;;0.75;0.30;;;16.00;55.10;;;;;;5051954;28;20032;-68
2023/12/16 06:29:41;;;;;;;1.50;0.40;;;16.00;55.10;;;;;;5051815;28;20419;-67
2023/12/16 06:32:07;;;;;;;1.77;0.30;;;15.90;55.10;;;;;;5068115;28;20037;-68
2023/12/16 06:34:33;;;;;;;1.15;0.22;;;15.90;55.10;;;;;;5051227;28;20107;-68
2023/12/16 06:36:58;;;;;;;1.50;0.30;;;15.90;55.10;;;;;;5051752;28;20045;-68
2023/12/16 06:39:24;;;;;;;0.75;0.30;;;15.90;55.10;;;;;;5050992;28;20040;-68
2023/12/16 06:41:53;;;;;;;0.70;0.30;;;15.90;55.10;;;;;;5051335;28;20032;-68
2023/12/16 06:44:19;;;;;;;1.08;0.40;;;15.90;55.10;;;;;;5050966;28;20045;-68
2023/12/16 06:46:44;;;;;;;1.17;0.35;;;15.90;55.10;;;;;;5051185;28;20077;-68
2023/12/16 06:49:10;;;;;;;1.13;0.30;;;15.90;55.10;;;;;;5051226;28;20076;-68
2023/12/16 06:51:36;;;;;;;1.85;0.22;;;15.90;55.10;;;;;;5068060;28;20115;-68
2023/12/16 06:54:01;;;;;;;2.50;0.60;;;15.90;55.10;;;;;;5068143;28;20494;-68
2023/12/16 06:56:27;;;;;;;0.88;0.25;;;15.90;55.10;;;;;;5067604;28;20472;-69
2023/12/16 06:58:55;;;;;;;1.30;0.25;;;15.90;55.20;;;;;;5051045;28;20114;-68
2023/12/16 07:01:23;;;;;;;1.23;0.50;;;15.90;55.20;;;;;;5067654;28;20043;-67
2023/12/16 07:03:49;;;;;;;1.80;0.30;;;15.80;55.10;;;;;;5051038;28;20041;-67
2023/12/16 07:06:19;;;;;;;0.90;0.30;;;15.80;55.10;;;;;;5051157;28;20052;-68
2023/12/16 07:08:45;;;;;;;;;;;15.80;55.10;;;;;;5067970;28;20476;-68
2023/12/16 07:11:12;;;;;;;1.00;0.30;;;15.80;55.00;;;;;;5050786;28;19923;-68
2023/12/16 07:13:38;;;;;;;1.58;0.63;;;15.80;55.10;;;;;;5051292;28;20541;-68
2023/12/16 07:16:04;;;;;;;1.60;0.32;;;15.80;55.10;;;;;;5050642;28;20360;-68
2023/12/16 07:18:30;;;;;;;1.60;0.40;;;15.80;55.10;;;;;;5067717;28;20072;-68
2023/12/16 07:20:56;;;;;;;1.98;0.28;;;15.80;55.10;;;;;;5052122;28;20445;-68
2023/12/16 07:23:24;;;;;;;1.33;0.35;;;15.80;55.10;;;;;;5052088;28;20095;-68
2023/12/16 07:25:50;;;;;;;1.00;0.40;;;15.80;55.10;;;;;;5050922;28;20166;-69
2023/12/16 07:28:17;;;;;;;1.17;0.30;;;15.80;55.20;;;;;;5051253;28;20090;-68
2023/12/16 07:30:43;;;;;;;1.88;0.20;;;15.80;55.20;;;;;;5052175;28;20134;-68
2023/12/16 07:33:08;;;;;;;0.70;0.30;;;15.80;55.20;;;;;;5050807;28;20487;-68
2023/12/16 07:35:38;;;;;;;2.03;0.40;;;15.80;55.20;;;;;;5051957;28;20132;-68
2023/12/16 07:38:04;;;;;;;1.25;0.20;;;15.70;55.10;;;;;;5067584;28;20480;-68
2023/12/16 07:40:31;;;;;;;1.25;0.47;;;15.70;55.10;;;;;;5051999;28;20043;-67
2023/12/16 07:42:57;;;;;;;3.13;0.68;;;15.70;55.20;;;;;;5050983;28;20356;-68
2023/12/16 07:45:23;;;;;;;1.52;0.40;;;15.70;55.20;;;;;;5050513;28;20056;-67
2023/12/16 07:47:48;;;;;;;2.80;0.22;;;15.70;55.20;;;;;;5050988;28;20045;-68
2023/12/16 07:50:16;;;;;;;1.17;0.20;;;15.70;55.20;;;;;;5052066;28;20513;-68
2023/12/16 07:52:44;;;;;;;0.93;0.30;;;15.70;55.20;;;;;;5054621;28;20041;-67
2023/12/16 07:55:10;;;;;;;2.35;0.40;;;15.70;55.30;;;;;;5054397;28;20487;-67
2023/12/16 07:57:35;;;;;;;0.95;0.40;;;15.70;55.20;;;;;;5053925;28;20091;-67
2023/12/16 08:00:04;;;;;;;1.08;0.38;;;15.70;55.20;;;;;;5054594;28;20077;-67
2023/12/16 08:02:31;;;;;;;1.67;0.40;;;15.70;55.20;;;;;;5054799;28;20041;-69
2023/12/16 08:04:57;;;;;;;1.02;0.30;;;15.70;55.20;;;;;;5055549;28;20087;-67
2023/12/16 08:07:23;;;;;;;1.42;0.30;;;15.70;55.20;;;;;;5054355;28;20041;-67
2023/12/16 08:09:49;;;;;;;0.60;0.30;;;15.70;55.20;;;;;;5054166;28;20041;-67
2023/12/16 08:12:15;;;;;;;1.52;0.40;;;15.70;55.20;;;;;;5054392;28;20052;-67
2023/12/16 08:14:40;;;;;;;2.58;0.55;;;15.70;55.20;;;;;;5054634;28;20036;-69
2023/12/16 08:17:06;;;;;;;2.15;0.40;;;15.70;55.10;;;;;;5054462;28;20075;-68
2023/12/16 08:19:32;;;;;;;3.05;0.50;;;15.70;55.20;;;;;;5055388;28;20041;-68
2023/12/16 08:22:01;;;;;;;2.90;0.47;;;15.60;55.10;;;;;;5055486;28;20121;-68
2023/12/16 08:24:29;;;;;;;1.63;0.40;;;15.60;55.10;;;;;;5070936;28;20044;-67
2023/12/16 08:26:54;;;;;;;1.27;0.30;;;15.70;55.10;;;;;;5070691;28;20041;-67
2023/12/16 08:29:23;;;;;;;2.63;0.30;;;15.60;55.20;;;;;;5056630;28;20029;-68
2023/12/16 08:31:49;;;;;;;1.63;0.25;;;15.60;55.20;;;;;;5070590;28;20041;-67
2023/12/16 08:34:15;;;;;;;1.17;0.38;;;15.60;55.90;;;;;;5053555;28;20107;-68
2023/12/16 08:36:41;;;;;;;2.15;0.47;;;15.60;55.20;;;;;;5055076;28;20076;-68
2023/12/16 08:39:07;;;;;;;1.45;0.60;;;15.60;55.20;;;;;;5054824;28;20049;-68
2023/12/16 08:41:32;;;;;;;0.77;0.35;;;15.60;55.20;;;;;;5055234;28;20035;-68
2023/12/16 08:43:58;;;;;;;1.13;0.30;;;15.60;55.20;;;;;;5054839;28;20091;-68
2023/12/16 08:46:25;;;;;;;0.73;0.40;;;15.60;55.20;;;;;;5053713;28;20045;-68
2023/12/16 08:48:53;;;;;;;1.35;0.40;;;15.60;55.20;;;;;;5053813;28;20123;-68
2023/12/16 08:51:21;;;;;;;2.08;0.28;;;15.60;55.20;;;;;;5054868;28;20041;-68
2023/12/16 08:53:47;;;;;;;3.17;0.35;;;15.60;55.20;;;;;;5053394;28;20044;-68
2023/12/16 08:56:19;;;;;;;1.90;0.30;;;15.60;55.20;;;;;;5053246;28;20052;-67
2023/12/16 08:58:46;;;;;;;1.00;0.40;;;15.60;55.60;;;;;;5053414;28;20041;-68
2023/12/16 09:01:11;;;;;;;1.88;0.30;;;15.60;55.20;;;;;;5053256;28;20041;-68
2023/12/16 09:03:40;;;;;;;2.40;0.30;;;15.60;55.20;;;;;;5052571;28;20091;-68
2023/12/16 09:06:06;;;;;;;2.20;0.82;;;15.60;55.20;;;;;;5053406;28;20221;-67
2023/12/16 09:08:32;;;;;;;1.58;0.40;;;15.60;55.20;;;;;;5053677;28;20325;-68
2023/12/16 09:10:57;;;;;;;1.73;0.55;;;15.60;55.20;;;;;;5054751;28;20039;-67
2023/12/16 09:13:23;;;;;;;2.03;0.25;;;15.60;55.20;;;;;;5069821;28;20097;-68
2023/12/16 09:15:49;;;;;;;0.68;0.20;;;15.60;55.20;;;;;;5052974;28;20518;-68
2023/12/16 09:18:15;;;;;;;1.23;0.30;;;15.60;55.20;;;;;;5053008;28;20033;-67
2023/12/16 09:20:40;;;;;;;1.70;0.60;;;15.50;55.10;;;;;;5053170;28;20033;-68
2023/12/16 09:23:06;;;;;;;2.03;0.40;;;15.60;55.20;;;;;;5052890;28;20438;-67
2023/12/16 09:25:32;;;;;;;1.92;0.47;;;15.50;55.10;;;;;;5054247;28;20106;-67
2023/12/16 09:27:57;;;;;;;1.38;0.25;;;15.50;55.20;;;;;;5054319;28;20510;-68
2023/12/16 09:30:23;;;;;;;2.80;0.50;;;15.50;55.20;;;;;;5052812;28;20116;-68
2023/12/16 09:32:49;;;;;;;1.45;0.30;;;15.50;55.20;;;;;;5052710;28;20045;-68
2023/12/16 09:35:14;;;;;;;2.22;0.30;;;15.50;55.20;;;;;;5052090;28;20212;-67
2023/12/16 09:37:40;;;;;;;2.40;0.43;;;15.50;55.20;;;;;;5053328;28;20049;-67
2023/12/16 09:40:06;;;;;;;2.70;0.45;;;15.50;55.10;;;;;;5052230;28;20127;-68
2023/12/16 09:42:36;;;;;;;1.55;0.30;;;15.50;55.10;;;;;;5054081;28;20041;-68
2023/12/16 09:45:06;;;;;;;1.98;0.30;;;15.50;55.20;;;;;;5052722;28;20041;-67
2023/12/16 09:47:32;;;;;;;1.52;0.40;;;15.50;55.20;;;;;;5053211;28;20072;-68
2023/12/16 09:49:59;;;;;;;1.67;0.40;;;15.50;55.20;;;;;;5053019;28;20071;-68
2023/12/16 09:52:26;;;;;;;1.33;0.30;;;15.50;55.20;;;;;;5052552;28;20037;-67
2023/12/16 09:54:52;;;;;;;3.70;0.63;;;15.50;55.20;;;;;;5052178;28;20041;-67
2023/12/16 09:57:18;;;;;;;1.75;0.40;;;15.50;55.20;;;;;;5053724;28;20480;-68
2023/12/16 09:59:46;;;;;;;1.40;0.40;;;15.50;55.20;;;;;;5052478;28;20087;-68
2023/12/16 10:02:21;;;;;;;2.92;0.77;;;15.50;55.20;;;;;;5052185;28;20552;-68
2023/12/16 10:04:51;;;;;;;1.67;0.40;;;15.50;55.20;;;;;;5052374;28;20088;-68
2023/12/16 10:07:17;;;;;;;1.85;0.50;;;15.50;56.00;;;;;;5052250;28;20113;-67
2023/12/16 10:09:42;;;;;;;2.28;0.40;;;15.50;55.30;;;;;;5053822;28;20116;-68
2023/12/16 10:12:09;;;;;;;2.17;0.40;;;15.50;55.20;;;;;;5053335;28;20514;-68
2023/12/16 10:14:46;;;;;;;1.27;0.43;;;15.50;55.20;;;;;;5052234;28;20484;-68
2023/12/16 10:17:11;;;;;;;2.28;0.50;;;15.50;55.20;;;;;;5051892;28;20037;-68
2023/12/16 10:19:37;;;;;;;1.17;0.30;;;15.50;55.30;;;;;;5052064;28;20094;-67
2023/12/16 10:22:03;;;;;;;1.92;0.50;;;15.50;55.20;;;;;;5053022;28;20136;-67
2023/12/16 10:24:29;;;;;;;1.65;0.50;;;15.50;55.30;;;;;;5051335;28;20044;-68
2023/12/16 10:26:54;;;;;;;1.83;0.52;;;15.50;55.30;;;;;;5051814;28;20065;-68
2023/12/16 10:29:20;;;;;;;1.45;0.30;;;15.50;55.30;;;;;;5068232;28;20056;-68
2023/12/16 10:31:46;;;;;;;2.75;0.40;;;15.40;55.30;;;;;;5068228;28;20048;-68
2023/12/16 10:34:12;;;;;;;1.13;0.40;;;15.40;55.30;;;;;;5051388;28;20122;-68
2023/12/16 10:36:37;;;;;;;1.70;0.35;;;15.40;55.30;;;;;;5051450;28;20048;-68
2023/12/16 10:39:03;;;;;;;1.58;0.50;;;15.50;55.40;;;;;;5067981;28;20045;-67
2023/12/16 10:41:29;;;;;;;3.20;0.75;;;15.40;55.30;;;;;;5051678;28;20044;-68
2023/12/16 10:43:55;;;;;;;1.98;0.60;;;15.40;55.30;;;;;;5067953;28;20464;-68
2023/12/16 10:46:25;;;;;;;2.60;0.47;;;15.40;55.30;;;;;;5051541;28;20044;-68
2023/12/16 10:48:57;;;;;;;1.00;0.30;;;15.40;55.30;;;;;;5052510;28;20122;-68
2023/12/16 10:51:26;;;;;;;2.83;0.57;;;15.40;55.40;;;;;;5051752;28;20528;-69
2023/12/16 10:54:05;;;;;;;1.83;0.35;;;15.40;55.40;;;;;;5067874;28;20248;-67
2023/12/16 10:56:36;;;;;;;1.33;0.40;;;15.40;55.40;;;;;;5067800;28;20052;-68
2023/12/16 10:59:05;;;;;;;1.45;0.40;;;15.40;55.40;;;;;;5052354;28;20036;-68
2023/12/16 11:01:35;;;;;;;1.77;0.40;;;15.40;55.50;;;;;;5051294;28;20052;-68
2023/12/16 11:04:10;;;;;;;2.05;0.45;;;15.40;55.40;;;;;;5050967;28;20048;-68
2023/12/16 11:06:51;;;;;;;2.35;0.50;;;15.40;55.50;;;;;;5051197;28;20072;-67
2023/12/16 11:09:18;;;;;;;1.60;0.40;;;15.40;55.50;;;;;;5051099;28;20052;-68
2023/12/16 11:11:45;;;;;;;2.95;0.57;;;15.40;55.50;;;;;;5052207;28;20037;-68
2023/12/16 11:14:12;;;;;;;2.10;0.40;;;15.40;55.50;;;;;;5051116;28;20480;-68
2023/12/16 11:19:44;;;;;;;3.08;1.02;;;15.40;55.50;;;;;;5130138;27;20435;-67
2023/12/16 11:22:11;;;;;;;2.40;0.60;;;15.40;55.60;;;;;;5128991;28;20096;-68
2023/12/16 11:24:40;;;;;;;1.77;0.55;;;15.40;55.50;;;;;;5129246;28;20050;-67
2023/12/16 11:27:07;;;;;;;1.95;0.40;;;15.40;55.60;;;;;;5129073;27;20043;-67
2023/12/16 11:29:33;;;;;;;2.25;0.43;;;15.40;55.60;;;;;;5129883;28;20432;-67
2023/12/16 11:32:01;;;;;;;1.73;0.35;;;15.40;55.60;;;;;;5129589;28;20047;-67
2023/12/16 11:34:43;;;;;;;1.42;0.40;;;15.40;55.60;;;;;;5129141;28;20046;-66
2023/12/16 11:37:10;;;;;;;1.65;0.50;;;15.40;55.60;;;;;;5129010;28;20031;-66
2023/12/16 11:45:39;;;;;;;2.53;0.50;;;15.40;55.70;;;;;;5109586;27;20453;-66
2023/12/16 11:48:15;;;;;;;1.70;0.50;;;15.30;55.70;;;;;;5108447;28;20048;-67
2023/12/16 11:50:43;;;;;;;2.22;0.70;;;15.30;55.70;;;;;;5108436;28;20078;-67
2023/12/16 11:53:13;;;;;;;2.17;0.52;;;15.30;55.70;;;;;;5108469;28;20054;-67
2023/12/16 11:55:39;;;;;;;2.83;0.40;;;15.40;55.80;;;;;;5108275;28;20506;-66
2023/12/16 11:58:06;;;;;;;2.15;0.38;;;15.30;55.80;;;;;;5108723;28;20051;-67
2023/12/16 12:00:33;;;;;;;1.08;0.43;;;15.40;55.80;;;;;;5109503;28;20053;-67
2023/12/16 12:03:02;;;;;;;1.95;0.30;;;15.30;55.70;;;;;;5108054;28;20036;-66
2023/12/16 12:05:29;;;;;;;1.20;0.30;;;15.30;55.80;;;;;;5108545;28;20094;-67
2023/12/16 12:07:55;;;;;;;2.55;0.40;;;15.30;55.80;;;;;;5108123;28;20517;-67
2023/12/16 12:10:21;;;;;;;3.72;0.40;;;15.30;55.80;;;;;;5109535;28;20135;-67
2023/12/16 12:12:47;;;;;;;1.98;0.43;;;15.30;55.80;;;;;;5109300;28;20100;-67
2023/12/16 12:15:13;;;;;;;3.00;0.40;;;15.30;55.80;;;;;;5109229;28;20044;-66
2023/12/16 12:17:39;;;;;;;1.30;0.40;;;15.30;55.80;;;;;;5107849;28;20047;-67
2023/12/16 12:20:06;;;;;;;2.00;0.40;;;15.30;55.80;;;;;;5109257;28;20072;-67
2023/12/16 12:22:33;;;;;;;2.33;0.50;;;15.30;55.90;;;;;;5108990;28;20035;-67
2023/12/16 12:24:59;;;;;;;1.50;0.68;;;15.30;55.90;;;;;;5109057;28;20093;-66
2023/12/16 12:27:27;;;;;;;1.70;0.40;;;15.30;55.90;;;;;;5108018;28;20044;-67
2023/12/16 12:29:55;;;;;;;1.73;0.52;;;15.30;56.00;;;;;;5109040;28;20036;-67
2023/12/16 12:32:21;;;;;;;1.73;0.40;;;15.30;56.00;;;;;;5108900;28;20032;-66
2023/12/16 12:34:57;;;;;;;2.08;0.60;;;15.30;56.00;;;;;;5107695;28;20051;-66
2023/12/16 12:37:23;;;;;;;1.88;0.50;;;15.30;56.10;;;;;;5107538;28;20467;-68
2023/12/16 12:39:49;;;;;;;2.13;0.40;;;15.30;56.10;;;;;;5107923;28;20052;-66
2023/12/16 12:42:14;;;;;;;1.30;0.50;;;15.30;56.10;;;;;;5109103;28;20051;-66
2023/12/16 12:44:51;;;;;;;1.33;0.50;;;15.30;56.10;;;;;;5107144;28;20302;-66
2023/12/16 12:47:32;;;;;;;2.67;0.47;;;15.30;56.10;;;;;;5108825;28;20032;-67
2023/12/16 12:49:58;;;;;;;;;;;15.30;56.10;;;;;;5108848;28;20035;-67
2023/12/16 12:52:39;;;;;;;1.98;0.40;;;15.30;56.10;;;;;;5108225;28;20417;-67
2023/12/16 12:55:05;;;;;;;;;;;15.20;56.00;;;;;;5104507;28;20040;-66